Terminal Aerodrome Forecast
Issued by NWS Louisville, KY

Home | Current Version | Previous Version | Text Only | Print | Product List | Glossary On
Versions: 1 2 3 4 5 6 7 8 9 10 11 12 13 14 15
000
FTUS43 KLMK 011100 AAA
TAFSDF
TAF AMD
KSDF 011130Z 0112/0218 VRB03KT P6SM FEW005 FEW070
      TEMPO 0112/0113 5SM BR BKN005
     FM011300 VRB03KT 6SM BR SCT012
     FM011500 VRB04KT P6SM SCT040
     FM021300 20007KT P6SM BKN070=

USA.gov is the U.S. government's official web portal to all federal, state and local government web resources and services.